Time;durP1;ratioP1;P1;durP2;ratioP2;P2;SDS_P1;SDS_P2;PMS_P1;PMS_P2;Temp;Humidity;BMP_temperature;BMP_pressure;BME280_temperature;BME280_humidity;BME280_pressure;Samples;Min_cycle;Max_cycle;Signal;HPM_P1;HPM_P2
2022/09/22 00:01:42;;;;;;;0.20;0.20;;;;;;;;;;4163554;28;20053;-43
2022/09/22 00:03:49;;;;;;;0.20;0.20;;;;;;;;;;4161416;28;20131;-43
2022/09/22 00:05:59;;;;;;;0.65;0.30;;;;;;;;;;4162243;28;20407;-43
2022/09/22 00:08:00;;;;;;;0.13;0.13;;;;;;;;;;4163092;28;20061;-43
2022/09/22 00:10:02;;;;;;;0.32;0.30;;;;;;;;;;4163513;28;20508;-42
2022/09/22 00:12:03;;;;;;;0.10;0.10;;;;;;;;;;4163477;28;20915;-43
2022/09/22 00:14:11;;;;;;;0.10;0.10;;;;;;;;;;4162075;28;20099;-43
2022/09/22 00:16:13;;;;;;;0.22;0.20;;;;;;;;;;4163495;28;20505;-43
2022/09/22 00:18:14;;;;;;;0.65;0.17;;;;;;;;;;4162797;28;20354;-43
2022/09/22 00:20:16;;;;;;;0.20;0.20;;;;;;;;;;4163504;28;20049;-42
2022/09/22 00:22:18;;;;;;;0.30;0.20;;;;;;;;;;4163044;28;20107;-43
2022/09/22 00:24:24;;;;;;;0.17;0.17;;;;;;;;;;4163191;28;20049;-43
2022/09/22 00:26:26;;;;;;;0.28;0.20;;;;;;;;;;4159565;28;20563;-43
2022/09/22 00:28:28;;;;;;;0.40;0.20;;;;;;;;;;4161776;28;20053;-43
2022/09/22 00:30:30;;;;;;;0.25;0.25;;;;;;;;;;4161534;28;20058;-43
2022/09/22 00:32:31;;;;;;;0.15;0.15;;;;;;;;;;4161083;28;20072;-43
2022/09/22 00:34:32;;;;;;;0.38;0.17;;;;;;;;;;4161224;28;20065;-43
2022/09/22 00:36:34;;;;;;;0.20;0.10;;;;;;;;;;4159943;28;20065;-43
2022/09/22 00:38:37;;;;;;;0.20;0.13;;;;;;;;;;4158960;28;20155;-41
2022/09/22 00:40:37;;;;;;;0.17;0.17;;;;;;;;;;4161347;28;20060;-43
2022/09/22 00:42:39;;;;;;;1.15;0.30;;;;;;;;;;4164728;28;20068;-42
2022/09/22 00:44:43;;;;;;;0.20;0.13;;;;;;;;;;4163047;28;20765;-43
2022/09/22 00:46:47;;;;;;;0.10;0.10;;;;;;;;;;4164529;28;20057;-42
2022/09/22 00:49:01;;;;;;;0.30;0.20;;;;;;;;;;4162381;28;20497;-43
2022/09/22 00:51:05;;;;;;;0.20;0.20;;;;;;;;;;4162997;28;20093;-42
2022/09/22 00:53:10;;;;;;;0.30;0.20;;;;;;;;;;4163701;28;20064;-43
2022/09/22 00:55:15;;;;;;;0.13;0.13;;;;;;;;;;4162995;28;20175;-43
2022/09/22 00:57:19;;;;;;;0.40;0.22;;;;;;;;;;4162827;28;20057;-43
2022/09/22 00:59:23;;;;;;;0.10;0.10;;;;;;;;;;4164141;28;20083;-42
2022/09/22 01:01:24;;;;;;;0.73;0.20;;;;;;;;;;4146442;28;20062;-42
2022/09/22 01:03:28;;;;;;;0.30;0.20;;;;;;;;;;4162301;28;20061;-43
2022/09/22 01:05:30;;;;;;;0.20;0.20;;;;;;;;;;4162909;28;20390;-43
2022/09/22 01:07:31;;;;;;;0.57;0.17;;;;;;;;;;4162388;28;20057;-43
2022/09/22 01:09:33;;;;;;;0.35;0.20;;;;;;;;;;4164387;28;20108;-43
2022/09/22 01:11:36;;;;;;;0.30;0.20;;;;;;;;;;4146541;28;20133;-43
2022/09/22 01:14:04;;;;;;;0.32;0.32;;;;;;;;;;4162268;28;20115;-43
2022/09/22 01:16:25;;;;;;;0.75;0.22;;;;;;;;;;4164052;28;20057;-42
2022/09/22 01:18:41;;;;;;;0.40;0.20;;;;;;;;;;4163864;28;20064;-42
2022/09/22 01:20:51;;;;;;;0.50;0.50;;;;;;;;;;4162821;28;20057;-42
2022/09/22 01:23:11;;;;;;;0.45;0.15;;;;;;;;;;4163386;28;20178;-43
2022/09/22 01:25:53;;;;;;;0.17;0.17;;;;;;;;;;4162750;28;20061;-41
2022/09/22 01:28:00;;;;;;;0.38;0.20;;;;;;;;;;4163569;28;20137;-43
2022/09/22 01:30:29;;;;;;;0.05;0.05;;;;;;;;;;4163938;28;20099;-43
2022/09/22 01:32:31;;;;;;;0.20;0.17;;;;;;;;;;4162745;28;20061;-43
2022/09/22 01:34:36;;;;;;;0.20;0.17;;;;;;;;;;4162740;28;20053;-43
2022/09/22 01:37:10;;;;;;;0.20;0.15;;;;;;;;;;4174431;28;20469;-42
2022/09/22 01:39:16;;;;;;;0.20;0.20;;;;;;;;;;4180037;28;20045;-43
2022/09/22 01:41:43;;;;;;;0.20;0.20;;;;;;;;;;4163385;28;20111;-43
2022/09/22 01:43:54;;;;;;;0.43;0.20;;;;;;;;;;4162175;28;20138;-43
2022/09/22 01:45:55;;;;;;;0.15;0.10;;;;;;;;;;4161706;28;20101;-43
2022/09/22 01:48:08;;;;;;;0.20;0.15;;;;;;;;;;4148166;28;20058;-43
2022/09/22 01:50:41;;;;;;;0.20;0.20;;;;;;;;;;4163730;28;20053;-43
2022/09/22 01:52:43;;;;;;;0.45;0.10;;;;;;;;;;4173722;28;20206;-43
2022/09/22 01:54:58;;;;;;;0.22;0.20;;;;;;;;;;4180488;28;20052;-42
2022/09/22 01:57:11;;;;;;;0.50;0.20;;;;;;;;;;4182024;28;20099;-42
2022/09/22 01:59:14;;;;;;;0.10;0.10;;;;;;;;;;4181969;28;20063;-43
2022/09/22 02:01:18;;;;;;;0.30;0.28;;;;;;;;;;4180644;28;20049;-43
2022/09/22 02:03:32;;;;;;;0.20;0.20;;;;;;;;;;4180304;28;20068;-43
2022/09/22 02:05:42;;;;;;;0.22;0.20;;;;;;;;;;4180387;28;20151;-42
2022/09/22 02:07:45;;;;;;;;;;;;;;;;;;4181826;28;20068;-43
2022/09/22 02:09:47;;;;;;;0.20;0.20;;;;;;;;;;4180229;28;19967;-42
2022/09/22 02:11:49;;;;;;;0.20;0.20;;;;;;;;;;4181497;28;20413;-43
2022/09/22 02:13:51;;;;;;;0.13;0.10;;;;;;;;;;4159088;28;20100;-43
2022/09/22 02:16:01;;;;;;;0.30;0.20;;;;;;;;;;4164917;28;20057;-42
2022/09/22 02:18:08;;;;;;;0.22;0.10;;;;;;;;;;4148575;28;20418;-43
2022/09/22 02:20:09;;;;;;;0.10;0.10;;;;;;;;;;4163279;28;20517;-42
2022/09/22 02:22:11;;;;;;;0.50;0.30;;;;;;;;;;4164669;28;20053;-41
2022/09/22 02:24:32;;;;;;;0.20;0.10;;;;;;;;;;4164645;28;20060;-42
2022/09/22 02:26:34;;;;;;;0.10;0.10;;;;;;;;;;4164901;28;20115;-42
2022/09/22 02:28:38;;;;;;;0.30;0.30;;;;;;;;;;4163364;28;20119;-42
2022/09/22 02:30:40;;;;;;;0.30;0.22;;;;;;;;;;4164932;28;20053;-42
2022/09/22 02:32:45;;;;;;;0.60;0.30;;;;;;;;;;4164746;28;20497;-41
2022/09/22 02:34:47;;;;;;;0.20;0.10;;;;;;;;;;4164379;28;20501;-42
2022/09/22 02:37:23;;;;;;;0.57;0.20;;;;;;;;;;4164035;28;20056;-42
2022/09/22 02:39:24;;;;;;;0.40;0.30;;;;;;;;;;4163539;28;20053;-43
2022/09/22 02:41:37;;;;;;;0.20;0.20;;;;;;;;;;4164792;28;20057;-42
2022/09/22 02:43:47;;;;;;;0.50;0.20;;;;;;;;;;4164457;28;20552;-42
2022/09/22 02:46:00;;;;;;;0.43;0.30;;;;;;;;;;4163337;28;20056;-41
2022/09/22 02:48:09;;;;;;;0.20;0.20;;;;;;;;;;4164492;28;20412;-42
2022/09/22 02:50:12;;;;;;;0.30;0.20;;;;;;;;;;4163983;28;20492;-42
2022/09/22 02:52:18;;;;;;;0.20;0.20;;;;;;;;;;4163954;28;20053;-42
2022/09/22 02:54:19;;;;;;;0.28;0.20;;;;;;;;;;4163014;28;20057;-42
2022/09/22 02:56:21;;;;;;;0.10;0.10;;;;;;;;;;4163213;28;20053;-42
2022/09/22 02:58:22;;;;;;;0.13;0.13;;;;;;;;;;4164108;28;20382;-41
2022/09/22 03:00:25;;;;;;;0.47;0.20;;;;;;;;;;4162938;28;20412;-42
2022/09/22 03:02:26;;;;;;;0.20;0.20;;;;;;;;;;4163009;28;20484;-43
2022/09/22 03:04:27;;;;;;;0.52;0.40;;;;;;;;;;4161767;28;20049;-42
2022/09/22 03:06:29;;;;;;;0.10;0.10;;;;;;;;;;4162758;28;20057;-42
2022/09/22 03:08:30;;;;;;;0.20;0.20;;;;;;;;;;4163670;28;20049;-42
2022/09/22 03:10:31;;;;;;;0.20;0.20;;;;;;;;;;4163033;28;20053;-42
2022/09/22 03:12:33;;;;;;;0.50;0.30;;;;;;;;;;4163983;28;20156;-42
2022/09/22 03:14:34;;;;;;;0.68;0.20;;;;;;;;;;4163916;28;20045;-41
2022/09/22 03:16:35;;;;;;;0.20;0.17;;;;;;;;;;4164125;28;20099;-42
2022/09/22 03:18:37;;;;;;;0.73;0.20;;;;;;;;;;4163503;28;20455;-42
2022/09/22 03:20:38;;;;;;;0.50;0.20;;;;;;;;;;4163750;28;20104;-42
2022/09/22 03:22:40;;;;;;;0.20;0.20;;;;;;;;;;4130117;28;20411;-42
2022/09/22 03:24:41;;;;;;;0.10;0.10;;;;;;;;;;4163979;28;20084;-41
2022/09/22 03:26:42;;;;;;;0.30;0.20;;;;;;;;;;4163888;28;20061;-42
2022/09/22 03:28:43;;;;;;;0.30;0.20;;;;;;;;;;4163801;28;20497;-42
2022/09/22 03:30:44;;;;;;;0.10;0.10;;;;;;;;;;4162643;28;20080;-41
2022/09/22 03:32:46;;;;;;;0.20;0.20;;;;;;;;;;4163870;28;20057;-42
2022/09/22 03:34:48;;;;;;;0.30;0.20;;;;;;;;;;4163363;28;20053;-42
2022/09/22 03:36:49;;;;;;;0.13;0.10;;;;;;;;;;4161949;28;20053;-42
2022/09/22 03:38:51;;;;;;;0.50;0.25;;;;;;;;;;4146034;28;20413;-42
2022/09/22 03:40:52;;;;;;;0.20;0.10;;;;;;;;;;4162623;28;20626;-42
2022/09/22 03:42:54;;;;;;;0.15;0.13;;;;;;;;;;4162519;28;20065;-41
2022/09/22 03:44:55;;;;;;;0.20;0.20;;;;;;;;;;4163595;28;20099;-43
2022/09/22 03:46:56;;;;;;;0.47;0.20;;;;;;;;;;4163623;28;20560;-44
2022/09/22 03:48:57;;;;;;;0.65;0.20;;;;;;;;;;4163310;28;20107;-42
2022/09/22 03:50:59;;;;;;;0.50;0.20;;;;;;;;;;4163404;28;20531;-42
2022/09/22 03:53:00;;;;;;;0.20;0.20;;;;;;;;;;4163916;28;20104;-42
2022/09/22 03:55:01;;;;;;;0.22;0.10;;;;;;;;;;4162196;28;20088;-42
2022/09/22 03:57:03;;;;;;;0.20;0.20;;;;;;;;;;4163766;28;20262;-42
2022/09/22 03:59:04;;;;;;;0.38;0.20;;;;;;;;;;4163635;28;20088;-42
2022/09/22 04:01:07;;;;;;;0.70;0.20;;;;;;;;;;4162317;28;20049;-42
2022/09/22 04:03:08;;;;;;;0.25;0.20;;;;;;;;;;4163271;28;20152;-42
2022/09/22 04:05:09;;;;;;;0.20;0.17;;;;;;;;;;4162659;28;20405;-41
2022/09/22 04:07:10;;;;;;;0.47;0.25;;;;;;;;;;4145721;28;20085;-41
2022/09/22 04:09:12;;;;;;;0.38;0.20;;;;;;;;;;4163479;28;20452;-43
2022/09/22 04:11:13;;;;;;;0.15;0.15;;;;;;;;;;4163416;28;20111;-42
2022/09/22 04:13:14;;;;;;;0.68;0.20;;;;;;;;;;4162729;28;20188;-41
2022/09/22 04:15:15;;;;;;;0.20;0.20;;;;;;;;;;4163240;28;20049;-42
2022/09/22 04:17:19;;;;;;;1.30;0.20;;;;;;;;;;4165094;28;20057;-41
2022/09/22 04:19:21;;;;;;;0.20;0.20;;;;;;;;;;4166362;28;20127;-42
2022/09/22 04:21:22;;;;;;;0.20;0.20;;;;;;;;;;4166312;28;20520;-42
2022/09/22 04:23:24;;;;;;;0.20;0.13;;;;;;;;;;4167055;28;20057;-42
2022/09/22 04:25:26;;;;;;;0.25;0.20;;;;;;;;;;4166778;28;20057;-42
2022/09/22 04:27:27;;;;;;;0.30;0.20;;;;;;;;;;4166645;28;20412;-42
2022/09/22 04:29:28;;;;;;;0.32;0.20;;;;;;;;;;4166788;28;20061;-42
2022/09/22 04:31:29;;;;;;;0.20;0.17;;;;;;;;;;4166673;28;20061;-42
2022/09/22 04:33:30;;;;;;;0.30;0.20;;;;;;;;;;4166425;28;20064;-42
2022/09/22 04:35:32;;;;;;;0.20;0.20;;;;;;;;;;4165977;28;20064;-42
2022/09/22 04:37:33;;;;;;;0.20;0.20;;;;;;;;;;4165521;28;20072;-41
2022/09/22 04:39:35;;;;;;;0.28;0.28;;;;;;;;;;4166256;28;20053;-43
2022/09/22 04:41:36;;;;;;;0.20;0.20;;;;;;;;;;4165157;28;20057;-41
2022/09/22 04:43:38;;;;;;;0.43;0.25;;;;;;;;;;4166322;28;20080;-42
2022/09/22 04:45:43;;;;;;;0.50;0.20;;;;;;;;;;4166531;28;20060;-41
2022/09/22 04:47:49;;;;;;;0.20;0.20;;;;;;;;;;4166439;28;20076;-42
2022/09/22 04:49:51;;;;;;;0.30;0.30;;;;;;;;;;4165255;28;20575;-43
2022/09/22 04:51:52;;;;;;;0.17;0.17;;;;;;;;;;4166072;28;20077;-43
2022/09/22 04:53:53;;;;;;;0.20;0.20;;;;;;;;;;4166187;28;20136;-42
2022/09/22 04:55:55;;;;;;;0.10;0.10;;;;;;;;;;4164958;28;20485;-42
2022/09/22 04:57:56;;;;;;;1.17;0.10;;;;;;;;;;4166135;28;20096;-43
2022/09/22 04:59:58;;;;;;;0.13;0.10;;;;;;;;;;4166242;28;20107;-43
2022/09/22 05:01:59;;;;;;;0.57;0.25;;;;;;;;;;4161032;28;20103;-43
2022/09/22 05:04:00;;;;;;;0.20;0.20;;;;;;;;;;4163146;28;20471;-41
2022/09/22 05:06:01;;;;;;;0.20;0.10;;;;;;;;;;4163534;28;20607;-42
2022/09/22 05:08:04;;;;;;;0.30;0.30;;;;;;;;;;4164031;28;20084;-41
2022/09/22 05:10:05;;;;;;;0.55;0.30;;;;;;;;;;4162681;28;20061;-43
2022/09/22 05:12:06;;;;;;;1.42;0.20;;;;;;;;;;4163727;28;20100;-41
2022/09/22 05:14:08;;;;;;;0.38;0.17;;;;;;;;;;4163805;28;20459;-42
2022/09/22 05:16:09;;;;;;;0.50;0.30;;;;;;;;;;4164041;28;20053;-43
2022/09/22 05:18:10;;;;;;;0.45;0.30;;;;;;;;;;4164483;28;20060;-44
2022/09/22 05:20:12;;;;;;;0.47;0.20;;;;;;;;;;4163118;28;20053;-43
2022/09/22 05:22:13;;;;;;;0.38;0.22;;;;;;;;;;4163858;28;20127;-41
2022/09/22 05:24:14;;;;;;;0.57;0.20;;;;;;;;;;4163335;28;20053;-43
2022/09/22 05:26:15;;;;;;;0.20;0.20;;;;;;;;;;4163581;28;20446;-41
2022/09/22 05:28:18;;;;;;;0.17;0.17;;;;;;;;;;4163262;28;20057;-43
2022/09/22 05:30:22;;;;;;;0.10;0.10;;;;;;;;;;4162098;28;20083;-43
2022/09/22 05:32:24;;;;;;;0.20;0.20;;;;;;;;;;4162319;28;20127;-42
2022/09/22 05:34:25;;;;;;;0.25;0.20;;;;;;;;;;4162817;28;20057;-41
2022/09/22 05:36:26;;;;;;;0.22;0.22;;;;;;;;;;4160211;28;20780;-41
2022/09/22 05:38:28;;;;;;;0.52;0.28;;;;;;;;;;4157088;28;20049;-41
2022/09/22 05:40:29;;;;;;;1.88;0.32;;;;;;;;;;4162490;28;20064;-41
2022/09/22 05:42:31;;;;;;;0.50;0.20;;;;;;;;;;4138964;28;20596;-43
2022/09/22 05:44:32;;;;;;;0.47;0.32;;;;;;;;;;4149444;28;20054;-41
2022/09/22 05:46:33;;;;;;;0.20;0.20;;;;;;;;;;4151688;28;20085;-41
2022/09/22 05:48:34;;;;;;;0.40;0.20;;;;;;;;;;4155230;28;20072;-40
2022/09/22 05:50:36;;;;;;;0.47;0.22;;;;;;;;;;4152646;28;20056;-41
2022/09/22 05:52:37;;;;;;;0.90;0.30;;;;;;;;;;4157260;28;20154;-40
2022/09/22 05:54:38;;;;;;;0.47;0.40;;;;;;;;;;4158039;28;20156;-40
2022/09/22 05:56:39;;;;;;;0.47;0.30;;;;;;;;;;4156344;28;20386;-40
2022/09/22 05:58:40;;;;;;;0.65;0.25;;;;;;;;;;4154666;28;20595;-47
2022/09/22 06:00:42;;;;;;;0.65;0.30;;;;;;;;;;4154170;28;20066;-40
2022/09/22 06:02:43;;;;;;;0.45;0.25;;;;;;;;;;4152321;28;20116;-40
2022/09/22 06:04:45;;;;;;;0.90;0.40;;;;;;;;;;4154166;28;20053;-41
2022/09/22 06:06:46;;;;;;;1.20;0.30;;;;;;;;;;4152628;28;20603;-40
2022/09/22 06:08:47;;;;;;;0.68;0.30;;;;;;;;;;4153303;28;20076;-40
2022/09/22 06:10:50;;;;;;;1.00;0.40;;;;;;;;;;4152936;28;20862;-40
2022/09/22 06:12:56;;;;;;;0.40;0.32;;;;;;;;;;4156556;28;20052;-41
2022/09/22 06:14:57;;;;;;;2.35;0.38;;;;;;;;;;4153813;28;20080;-40
2022/09/22 06:16:59;;;;;;;3.90;0.35;;;;;;;;;;4150836;28;20053;-40
2022/09/22 06:19:00;;;;;;;0.40;0.20;;;;;;;;;;4145124;28;20061;-40
2022/09/22 06:21:01;;;;;;;0.60;0.30;;;;;;;;;;4148790;28;20049;-40
2022/09/22 06:23:03;;;;;;;0.40;0.20;;;;;;;;;;4148410;28;20088;-41
2022/09/22 06:25:07;;;;;;;0.85;0.47;;;;;;;;;;4140494;28;20497;-41
2022/09/22 06:27:09;;;;;;;2.05;0.40;;;;;;;;;;4140684;28;20061;-41
2022/09/22 06:29:10;;;;;;;0.38;0.20;;;;;;;;;;4142765;28;20732;-41
2022/09/22 06:31:13;;;;;;;2.13;0.50;;;;;;;;;;4139050;28;20456;-41
2022/09/22 06:33:15;;;;;;;0.50;0.40;;;;;;;;;;4138440;28;20497;-39
2022/09/22 06:35:17;;;;;;;1.25;0.40;;;;;;;;;;4144142;28;20049;-41
2022/09/22 06:37:19;;;;;;;0.60;0.30;;;;;;;;;;4134195;28;20064;-40
2022/09/22 06:39:22;;;;;;;0.45;0.25;;;;;;;;;;4135919;28;20426;-40
2022/09/22 06:41:27;;;;;;;0.57;0.30;;;;;;;;;;4133108;28;20198;-40
2022/09/22 06:43:36;;;;;;;2.13;0.30;;;;;;;;;;4140824;28;20061;-41
2022/09/22 06:45:38;;;;;;;1.77;0.30;;;;;;;;;;4136275;28;20402;-40
2022/09/22 06:47:40;;;;;;;4.28;0.38;;;;;;;;;;4129402;28;20096;-40
2022/09/22 06:49:41;;;;;;;1.58;0.30;;;;;;;;;;4136589;28;20059;-41
2022/09/22 06:51:43;;;;;;;0.68;0.35;;;;;;;;;;4129645;28;21360;-42
2022/09/22 06:53:46;;;;;;;3.83;0.52;;;;;;;;;;4135138;28;20060;-40
2022/09/22 06:55:48;;;;;;;7.22;0.45;;;;;;;;;;4136793;28;20061;-40
2022/09/22 06:57:50;;;;;;;0.60;0.30;;;;;;;;;;4127037;28;20103;-40
2022/09/22 06:59:52;;;;;;;4.40;1.08;;;;;;;;;;4123636;28;20725;-40
2022/09/22 07:01:53;;;;;;;1.05;0.40;;;;;;;;;;4134543;28;20060;-40
2022/09/22 07:03:54;;;;;;;0.17;0.13;;;;;;;;;;4128548;28;20760;-40
2022/09/22 07:05:59;;;;;;;0.20;0.20;;;;;;;;;;4124412;28;20054;-42
2022/09/22 07:08:01;;;;;;;0.22;0.20;;;;;;;;;;4125734;28;20061;-40
2022/09/22 07:10:02;;;;;;;0.50;0.35;;;;;;;;;;4128996;28;20618;-45
2022/09/22 07:12:05;;;;;;;0.60;0.20;;;;;;;;;;4128309;28;20103;-40
2022/09/22 07:14:07;;;;;;;3.08;0.30;;;;;;;;;;4136485;28;20101;-40
2022/09/22 07:16:16;;;;;;;0.55;0.28;;;;;;;;;;4132283;28;20077;-41
2022/09/22 07:18:17;;;;;;;1.20;0.32;;;;;;;;;;4131989;28;20057;-40
2022/09/22 07:20:20;;;;;;;0.65;0.20;;;;;;;;;;4132912;28;20132;-41
2022/09/22 07:22:22;;;;;;;0.30;0.20;;;;;;;;;;4129251;28;20055;-41
2022/09/22 07:24:23;;;;;;;2.05;0.32;;;;;;;;;;4135825;28;20408;-40
2022/09/22 07:26:32;;;;;;;0.55;0.30;;;;;;;;;;4127857;28;20816;-41
2022/09/22 07:28:34;;;;;;;1.27;0.47;;;;;;;;;;4128660;28;20057;-41
2022/09/22 07:30:37;;;;;;;2.22;0.25;;;;;;;;;;4121662;28;20072;-41
2022/09/22 07:32:38;;;;;;;0.43;0.20;;;;;;;;;;4126175;28;20082;-40
2022/09/22 07:34:39;;;;;;;0.60;0.15;;;;;;;;;;4119974;28;20057;-40
2022/09/22 07:36:40;;;;;;;0.40;0.30;;;;;;;;;;4132569;28;20053;-41
2022/09/22 07:38:42;;;;;;;2.28;0.20;;;;;;;;;;4125543;28;20057;-42
2022/09/22 07:40:52;;;;;;;1.67;0.20;;;;;;;;;;4134434;28;20332;-42
2022/09/22 07:42:53;;;;;;;2.63;0.45;;;;;;;;;;4128635;28;21638;-40
2022/09/22 07:45:13;;;;;;;0.40;0.30;;;;;;;;;;4116219;28;20061;-41
2022/09/22 07:47:14;;;;;;;;;;;;;;;;;;4131104;28;20069;-42
2022/09/22 07:49:18;;;;;;;2.50;0.50;;;;;;;;;;4133911;28;19955;-38
2022/09/22 07:51:21;;;;;;;4.13;0.30;;;;;;;;;;4138549;28;20057;-41
2022/09/22 07:53:22;;;;;;;0.65;0.30;;;;;;;;;;4134808;28;20053;-40
2022/09/22 07:55:23;;;;;;;0.55;0.30;;;;;;;;;;4120136;28;20049;-42
2022/09/22 07:57:25;;;;;;;0.30;0.20;;;;;;;;;;4133925;28;20586;-42
2022/09/22 07:59:26;;;;;;;1.65;0.30;;;;;;;;;;4128873;28;20524;-42
2022/09/22 08:01:30;;;;;;;0.20;0.20;;;;;;;;;;4124717;28;20053;-40
2022/09/22 08:03:31;;;;;;;3.35;0.20;;;;;;;;;;4102326;28;20576;-41
2022/09/22 08:05:33;;;;;;;1.15;0.30;;;;;;;;;;4113402;28;20420;-41
2022/09/22 08:07:36;;;;;;;4.68;0.40;;;;;;;;;;4117438;28;20142;-41
2022/09/22 08:09:37;;;;;;;8.40;0.77;;;;;;;;;;4124956;28;20127;-41
2022/09/22 08:11:39;;;;;;;1.65;0.20;;;;;;;;;;4118811;28;20477;-41
2022/09/22 08:13:43;;;;;;;2.17;0.30;;;;;;;;;;4126086;28;20060;-41
2022/09/22 08:15:44;;;;;;;0.10;0.10;;;;;;;;;;4119399;28;20053;-40
2022/09/22 08:17:45;;;;;;;1.30;0.30;;;;;;;;;;4121553;28;20053;-41
2022/09/22 08:19:46;;;;;;;0.50;0.20;;;;;;;;;;4129991;28;20115;-42
2022/09/22 08:21:50;;;;;;;1.80;0.20;;;;;;;;;;4132902;28;20052;-41
2022/09/22 08:23:52;;;;;;;2.67;0.32;;;;;;;;;;4120705;28;20072;-40
2022/09/22 08:25:53;;;;;;;2.25;0.20;;;;;;;;;;4118671;28;20266;-41
2022/09/22 08:27:55;;;;;;;0.75;0.10;;;;;;;;;;4119395;28;20061;-37
2022/09/22 08:29:56;;;;;;;0.82;0.40;;;;;;;;;;4117522;28;20065;-37
2022/09/22 08:31:57;;;;;;;0.63;0.25;;;;;;;;;;4129641;28;20139;-38
2022/09/22 08:33:58;;;;;;;1.10;0.40;;;;;;;;;;4115608;28;20495;-37
2022/09/22 08:36:02;;;;;;;0.40;0.30;;;;;;;;;;4099675;28;20324;-39
2022/09/22 08:38:03;;;;;;;2.25;0.40;;;;;;;;;;4126193;28;20658;-37
2022/09/22 08:40:05;;;;;;;1.75;0.40;;;;;;;;;;4128042;28;20533;-38
2022/09/22 08:42:09;;;;;;;1.55;0.30;;;;;;;;;;4132421;28;20192;-38
2022/09/22 08:44:10;;;;;;;3.58;0.30;;;;;;;;;;4125775;28;20547;-38
2022/09/22 08:46:11;;;;;;;0.90;0.30;;;;;;;;;;4121932;28;20062;-40
2022/09/22 08:53:11;;;;;;;2.25;0.35;;;;;;;;;;4116395;28;20099;-38
2022/09/22 08:55:18;;;;;;;1.85;0.20;;;;;;;;;;4122218;28;20053;-38
2022/09/22 08:57:39;;;;;;;1.65;0.20;;;;;;;;;;4124128;28;20135;-38
2022/09/22 09:00:19;;;;;;;1.48;0.30;;;;;;;;;;4135692;28;20057;-38
2022/09/22 09:02:41;;;;;;;1.50;0.20;;;;;;;;;;4115564;28;20068;-38
2022/09/22 09:04:58;;;;;;;2.38;0.28;;;;;;;;;;4130567;28;20111;-39
2022/09/22 09:07:07;;;;;;;0.57;0.28;;;;;;;;;;4123104;28;20053;-39
2022/09/22 09:09:22;;;;;;;1.67;0.20;;;;;;;;;;4127563;28;20665;-39
2022/09/22 09:11:40;;;;;;;1.50;0.40;;;;;;;;;;4124766;28;20497;-39
2022/09/22 09:13:52;;;;;;;0.90;0.20;;;;;;;;;;4127364;28;20130;-38
2022/09/22 09:16:32;;;;;;;0.98;0.20;;;;;;;;;;4132561;28;20053;-38
2022/09/22 09:18:36;;;;;;;0.30;0.20;;;;;;;;;;4128947;28;20549;-37
2022/09/22 09:20:43;;;;;;;2.17;0.50;;;;;;;;;;4138102;28;20442;-37
2022/09/22 09:22:54;;;;;;;0.52;0.25;;;;;;;;;;4133533;28;20061;-38
2022/09/22 09:24:59;;;;;;;0.57;0.17;;;;;;;;;;4129773;28;20123;-37
2022/09/22 09:27:07;;;;;;;0.77;0.28;;;;;;;;;;4143724;28;20127;-38
2022/09/22 09:29:17;;;;;;;0.90;0.20;;;;;;;;;;4125387;28;20127;-38
2022/09/22 09:31:26;;;;;;;4.18;0.40;;;;;;;;;;4128983;28;20119;-38
2022/09/22 09:33:47;;;;;;;2.03;0.20;;;;;;;;;;4130840;28;20472;-38
2022/09/22 09:35:50;;;;;;;2.53;0.20;;;;;;;;;;4136227;28;20724;-38
2022/09/22 09:37:54;;;;;;;2.75;0.22;;;;;;;;;;4132582;28;20115;-38
2022/09/22 09:39:55;;;;;;;0.55;0.20;;;;;;;;;;4131475;28;20677;-39
2022/09/22 09:41:57;;;;;;;2.70;0.25;;;;;;;;;;4130213;28;20057;-37
2022/09/22 09:43:59;;;;;;;0.20;0.10;;;;;;;;;;4135783;28;20067;-38
2022/09/22 09:46:18;;;;;;;0.52;0.20;;;;;;;;;;4130790;28;20731;-37
2022/09/22 09:48:31;;;;;;;0.57;0.40;;;;;;;;;;4132134;28;20050;-38
2022/09/22 09:50:34;;;;;;;1.00;0.25;;;;;;;;;;4129844;28;20060;-38
2022/09/22 09:52:37;;;;;;;1.17;0.40;;;;;;;;;;4127113;28;20596;-38
2022/09/22 09:54:40;;;;;;;1.38;0.30;;;;;;;;;;4129833;28;20095;-38
2022/09/22 09:57:20;;;;;;;1.25;0.40;;;;;;;;;;4131847;28;20134;-38
2022/09/22 10:01:47;;;;;;;1.40;0.20;;;;;;;;;;4135377;28;20057;-38
2022/09/22 10:03:53;;;;;;;0.22;0.20;;;;;;;;;;4131286;28;20575;-37
2022/09/22 10:06:06;;;;;;;1.67;0.25;;;;;;;;;;4116587;28;20785;-37
2022/09/22 10:08:16;;;;;;;1.42;0.30;;;;;;;;;;4129663;28;20058;-37
2022/09/22 10:10:34;;;;;;;2.60;1.23;;;;;;;;;;4130223;28;20188;-37
2022/09/22 10:13:03;;;;;;;0.45;0.28;;;;;;;;;;4128184;28;20053;-37
2022/09/22 10:15:21;;;;;;;0.47;0.17;;;;;;;;;;4129756;28;20103;-37
2022/09/22 10:17:32;;;;;;;0.40;0.30;;;;;;;;;;4131134;28;20064;-37
2022/09/22 10:19:34;;;;;;;0.43;0.30;;;;;;;;;;4112827;28;20058;-37
2022/09/22 10:21:36;;;;;;;0.80;0.40;;;;;;;;;;4139903;28;21200;-36
2022/09/22 10:23:38;;;;;;;1.48;0.30;;;;;;;;;;4137736;28;20406;-37
2022/09/22 10:25:39;;;;;;;0.17;0.17;;;;;;;;;;4136041;28;20567;-36
2022/09/22 10:27:42;;;;;;;0.60;0.20;;;;;;;;;;4133271;28;20088;-37
2022/09/22 10:29:44;;;;;;;1.35;0.40;;;;;;;;;;4143108;28;20528;-36
2022/09/22 10:32:16;;;;;;;0.95;0.35;;;;;;;;;;4138569;28;20053;-37
2022/09/22 10:34:47;;;;;;;0.50;0.30;;;;;;;;;;4136655;28;20064;-37
2022/09/22 10:36:48;;;;;;;0.73;0.30;;;;;;;;;;4135734;28;20064;-37
2022/09/22 10:38:50;;;;;;;0.80;0.30;;;;;;;;;;4139359;28;20487;-37
2022/09/22 10:41:09;;;;;;;0.52;0.20;;;;;;;;;;4141434;28;20057;-38
2022/09/22 10:43:27;;;;;;;1.00;0.43;;;;;;;;;;4139366;28;20191;-37
2022/09/22 10:45:41;;;;;;;0.65;0.28;;;;;;;;;;4130190;28;20512;-37
2022/09/22 10:48:12;;;;;;;0.63;0.35;;;;;;;;;;4136512;28;20119;-38
2022/09/22 10:50:27;;;;;;;0.50;0.22;;;;;;;;;;4135134;28;20092;-37
2022/09/22 10:52:53;;;;;;;0.60;0.32;;;;;;;;;;4127844;28;20125;-37
2022/09/22 10:55:26;;;;;;;0.40;0.30;;;;;;;;;;4127580;28;20127;-38
2022/09/22 10:57:33;;;;;;;0.65;0.25;;;;;;;;;;4125298;28;21340;-37
2022/09/22 10:59:54;;;;;;;1.10;0.52;;;;;;;;;;4128200;28;20745;-37
2022/09/22 11:02:06;;;;;;;5.40;0.38;;;;;;;;;;4119868;28;20118;-37
2022/09/22 11:04:17;;;;;;;1.00;0.30;;;;;;;;;;4118372;28;20428;-37
2022/09/22 11:12:20;;;;;;;2.58;0.30;;;;;;;;;;4140035;28;20056;-38
2022/09/22 11:14:27;;;;;;;2.03;0.30;;;;;;;;;;4138567;28;20080;-37
2022/09/22 11:16:40;;;;;;;2.67;0.30;;;;;;;;;;4136157;28;20962;-39
2022/09/22 11:19:04;;;;;;;0.38;0.20;;;;;;;;;;4132339;28;20057;-39
2022/09/22 11:21:22;;;;;;;0.47;0.28;;;;;;;;;;4135025;28;20111;-39
2022/09/22 11:23:44;;;;;;;1.05;0.20;;;;;;;;;;4137401;28;20056;-40
2022/09/22 11:26:23;;;;;;;0.38;0.30;;;;;;;;;;4138950;28;20049;-39
2022/09/22 11:28:52;;;;;;;0.98;0.20;;;;;;;;;;4128912;28;20068;-41
2022/09/22 11:30:56;;;;;;;1.15;0.32;;;;;;;;;;4131691;28;20115;-41
2022/09/22 11:33:12;;;;;;;2.97;0.32;;;;;;;;;;4133640;28;20103;-38
2022/09/22 11:35:16;;;;;;;3.25;0.40;;;;;;;;;;4098744;28;20065;-38
2022/09/22 11:37:39;;;;;;;1.70;0.40;;;;;;;;;;4122952;28;20147;-42
2022/09/22 11:39:50;;;;;;;0.82;0.30;;;;;;;;;;4131848;28;20053;-45
2022/09/22 11:41:54;;;;;;;1.95;0.20;;;;;;;;;;4133935;28;20677;-40
2022/09/22 11:44:27;;;;;;;2.65;0.22;;;;;;;;;;4128403;28;20119;-41
2022/09/22 11:46:49;;;;;;;6.70;0.40;;;;;;;;;;4137429;28;20068;-40
2022/09/22 11:49:39;;;;;;;0.70;0.22;;;;;;;;;;4134685;28;20064;-41
2022/09/22 11:51:44;;;;;;;0.30;0.20;;;;;;;;;;4137096;28;20512;-41
2022/09/22 11:54:09;;;;;;;1.48;0.30;;;;;;;;;;4134211;28;20515;-41
2022/09/22 11:56:44;;;;;;;0.40;0.20;;;;;;;;;;4136023;28;20065;-40
2022/09/22 11:58:46;;;;;;;0.47;0.20;;;;;;;;;;4105774;28;20057;-40
2022/09/22 12:00:58;;;;;;;1.05;0.20;;;;;;;;;;4132020;28;20053;-41
2022/09/22 12:03:03;;;;;;;0.38;0.10;;;;;;;;;;4124840;28;20108;-41
2022/09/22 12:05:38;;;;;;;1.08;0.40;;;;;;;;;;4129528;28;21442;-41
2022/09/22 12:07:44;;;;;;;2.85;0.30;;;;;;;;;;4138714;28;20095;-41
2022/09/22 12:09:54;;;;;;;3.40;0.63;;;;;;;;;;4133600;28;20065;-40
2022/09/22 12:11:56;;;;;;;0.50;0.20;;;;;;;;;;4132953;28;20645;-40
2022/09/22 12:13:58;;;;;;;0.73;0.40;;;;;;;;;;4139381;28;20183;-40
2022/09/22 12:16:21;;;;;;;2.22;0.40;;;;;;;;;;4134396;28;20050;-40
2022/09/22 12:18:57;;;;;;;1.58;0.10;;;;;;;;;;4140951;28;20058;-41
2022/09/22 12:21:23;;;;;;;0.40;0.25;;;;;;;;;;4139960;28;21443;-40
2022/09/22 12:23:41;;;;;;;0.15;0.10;;;;;;;;;;4141651;28;20417;-40
2022/09/22 12:25:53;;;;;;;0.50;0.30;;;;;;;;;;4130117;28;20112;-41
2022/09/22 12:27:55;;;;;;;1.50;0.20;;;;;;;;;;4135946;28;20061;-41
2022/09/22 12:30:02;;;;;;;1.02;0.20;;;;;;;;;;4134572;28;20178;-39
2022/09/22 12:32:03;;;;;;;0.45;0.30;;;;;;;;;;4138271;28;20053;-40
2022/09/22 12:34:14;;;;;;;0.35;0.13;;;;;;;;;;4143726;28;20084;-41
2022/09/22 12:36:28;;;;;;;0.50;0.20;;;;;;;;;;4142167;28;20053;-40
2022/09/22 12:38:30;;;;;;;0.52;0.10;;;;;;;;;;4141231;28;20107;-41
2022/09/22 12:40:36;;;;;;;1.20;0.30;;;;;;;;;;4146785;28;20062;-40
2022/09/22 12:42:38;;;;;;;0.22;0.15;;;;;;;;;;4158197;28;20095;-40
2022/09/22 12:44:45;;;;;;;0.30;0.20;;;;;;;;;;4143454;28;20594;-39
2022/09/22 12:46:47;;;;;;;0.20;0.20;;;;;;;;;;4145883;28;20122;-40
2022/09/22 12:48:48;;;;;;;0.32;0.20;;;;;;;;;;4144766;28;20498;-40
2022/09/22 12:50:51;;;;;;;0.30;0.17;;;;;;;;;;4163018;28;20445;-38
2022/09/22 12:52:52;;;;;;;0.90;0.20;;;;;;;;;;4144454;28;20057;-39